sensor_id;sensor_type;location;lat;lon;timestamp;P1;durP1;ratioP1;P2;durP2;ratioP2
18104;SDS011;9179;50.968;3.134;2023-05-02T00:01:52;22.73;;;16.67;;
18104;SDS011;9179;50.968;3.134;2023-05-02T00:04:19;18.40;;;15.50;;
18104;SDS011;9179;50.968;3.134;2023-05-02T00:06:47;20.60;;;16.67;;
18104;SDS011;9179;50.968;3.134;2023-05-02T00:09:16;20.35;;;17.83;;
18104;SDS011;9179;50.968;3.134;2023-05-02T00:11:43;20.77;;;16.38;;
18104;SDS011;9179;50.968;3.134;2023-05-02T00:14:10;22.00;;;17.77;;
18104;SDS011;9179;50.968;3.134;2023-05-02T00:16:37;20.27;;;17.27;;
18104;SDS011;9179;50.968;3.134;2023-05-02T00:19:04;22.63;;;18.63;;
18104;SDS011;9179;50.968;3.134;2023-05-02T00:21:31;23.60;;;18.40;;
18104;SDS011;9179;50.968;3.134;2023-05-02T00:23:59;21.75;;;17.23;;
18104;SDS011;9179;50.968;3.134;2023-05-02T00:26:26;23.65;;;16.92;;
18104;SDS011;9179;50.968;3.134;2023-05-02T00:28:53;23.33;;;17.38;;
18104;SDS011;9179;50.968;3.134;2023-05-02T00:31:20;20.33;;;16.98;;
18104;SDS011;9179;50.968;3.134;2023-05-02T00:33:47;22.25;;;17.27;;
18104;SDS011;9179;50.968;3.134;2023-05-02T00:36:14;22.08;;;18.90;;
18104;SDS011;9179;50.968;3.134;2023-05-02T00:38:41;20.17;;;17.25;;
18104;SDS011;9179;50.968;3.134;2023-05-02T00:41:10;21.65;;;18.15;;
18104;SDS011;9179;50.968;3.134;2023-05-02T00:43:38;20.02;;;17.95;;
18104;SDS011;9179;50.968;3.134;2023-05-02T00:46:05;21.00;;;17.35;;
18104;SDS011;9179;50.968;3.134;2023-05-02T00:48:32;20.88;;;16.83;;
18104;SDS011;9179;50.968;3.134;2023-05-02T00:51:01;24.30;;;17.42;;
18104;SDS011;9179;50.968;3.134;2023-05-02T00:53:30;24.88;;;20.67;;
18104;SDS011;9179;50.968;3.134;2023-05-02T00:55:57;22.48;;;18.33;;
18104;SDS011;9179;50.968;3.134;2023-05-02T00:58:25;20.23;;;17.05;;
18104;SDS011;9179;50.968;3.134;2023-05-02T01:00:58;20.83;;;18.20;;
18104;SDS011;9179;50.968;3.134;2023-05-02T01:03:35;19.48;;;17.05;;
18104;SDS011;9179;50.968;3.134;2023-05-02T01:06:10;19.88;;;17.38;;
18104;SDS011;9179;50.968;3.134;2023-05-02T01:08:46;20.40;;;18.00;;
18104;SDS011;9179;50.968;3.134;2023-05-02T01:11:23;26.05;;;18.33;;
18104;SDS011;9179;50.968;3.134;2023-05-02T01:14:02;24.02;;;18.88;;
18104;SDS011;9179;50.968;3.134;2023-05-02T01:16:34;22.48;;;19.23;;
18104;SDS011;9179;50.968;3.134;2023-05-02T01:19:04;22.02;;;19.17;;
18104;SDS011;9179;50.968;3.134;2023-05-02T01:21:34;23.55;;;19.83;;
18104;SDS011;9179;50.968;3.134;2023-05-02T01:24:04;23.50;;;20.02;;
18104;SDS011;9179;50.968;3.134;2023-05-02T01:26:42;23.77;;;20.25;;
18104;SDS011;9179;50.968;3.134;2023-05-02T01:29:17;21.35;;;19.15;;
18104;SDS011;9179;50.968;3.134;2023-05-02T01:31:47;23.27;;;19.40;;
18104;SDS011;9179;50.968;3.134;2023-05-02T01:34:16;27.35;;;20.20;;
18104;SDS011;9179;50.968;3.134;2023-05-02T01:36:46;34.05;;;21.92;;
18104;SDS011;9179;50.968;3.134;2023-05-02T01:39:18;24.35;;;19.42;;
18104;SDS011;9179;50.968;3.134;2023-05-02T01:41:48;26.42;;;19.73;;
18104;SDS011;9179;50.968;3.134;2023-05-02T01:44:18;25.13;;;20.02;;
18104;SDS011;9179;50.968;3.134;2023-05-02T01:46:47;29.13;;;21.38;;
18104;SDS011;9179;50.968;3.134;2023-05-02T01:49:17;23.58;;;20.50;;
18104;SDS011;9179;50.968;3.134;2023-05-02T01:51:46;21.90;;;19.58;;
18104;SDS011;9179;50.968;3.134;2023-05-02T01:54:15;23.05;;;19.40;;
18104;SDS011;9179;50.968;3.134;2023-05-02T01:56:43;25.73;;;19.10;;
18104;SDS011;9179;50.968;3.134;2023-05-02T01:59:12;25.30;;;19.48;;
18104;SDS011;9179;50.968;3.134;2023-05-02T02:01:43;23.83;;;20.17;;
18104;SDS011;9179;50.968;3.134;2023-05-02T02:04:12;23.45;;;18.63;;
18104;SDS011;9179;50.968;3.134;2023-05-02T02:06:41;24.23;;;20.55;;
18104;SDS011;9179;50.968;3.134;2023-05-02T02:09:11;23.98;;;19.30;;
18104;SDS011;9179;50.968;3.134;2023-05-02T02:11:41;22.25;;;18.23;;
18104;SDS011;9179;50.968;3.134;2023-05-02T02:14:13;24.20;;;18.85;;
18104;SDS011;9179;50.968;3.134;2023-05-02T02:16:45;28.80;;;21.00;;
18104;SDS011;9179;50.968;3.134;2023-05-02T02:19:14;25.70;;;20.20;;
18104;SDS011;9179;50.968;3.134;2023-05-02T02:21:42;21.83;;;19.20;;
18104;SDS011;9179;50.968;3.134;2023-05-02T02:24:12;26.25;;;21.40;;
18104;SDS011;9179;50.968;3.134;2023-05-02T02:26:41;30.30;;;21.48;;
18104;SDS011;9179;50.968;3.134;2023-05-02T02:29:08;27.40;;;20.67;;
18104;SDS011;9179;50.968;3.134;2023-05-02T02:31:35;27.98;;;20.40;;
18104;SDS011;9179;50.968;3.134;2023-05-02T02:34:05;26.00;;;20.05;;
18104;SDS011;9179;50.968;3.134;2023-05-02T02:36:33;28.02;;;21.58;;
18104;SDS011;9179;50.968;3.134;2023-05-02T02:39:09;22.67;;;20.10;;
18104;SDS011;9179;50.968;3.134;2023-05-02T02:41:50;26.75;;;21.38;;
18104;SDS011;9179;50.968;3.134;2023-05-02T02:44:27;26.63;;;22.15;;
18104;SDS011;9179;50.968;3.134;2023-05-02T02:47:04;25.23;;;21.70;;
18104;SDS011;9179;50.968;3.134;2023-05-02T02:49:41;25.05;;;21.42;;
18104;SDS011;9179;50.968;3.134;2023-05-02T02:52:16;26.25;;;20.90;;
18104;SDS011;9179;50.968;3.134;2023-05-02T02:54:49;30.83;;;21.23;;
18104;SDS011;9179;50.968;3.134;2023-05-02T02:57:23;25.42;;;20.95;;
18104;SDS011;9179;50.968;3.134;2023-05-02T03:00:00;24.98;;;20.08;;
18104;SDS011;9179;50.968;3.134;2023-05-02T03:02:36;30.73;;;24.00;;
18104;SDS011;9179;50.968;3.134;2023-05-02T03:05:08;26.17;;;22.65;;
18104;SDS011;9179;50.968;3.134;2023-05-02T03:07:36;28.83;;;22.60;;
18104;SDS011;9179;50.968;3.134;2023-05-02T03:10:03;27.55;;;23.13;;
18104;SDS011;9179;50.968;3.134;2023-05-02T03:12:31;27.45;;;21.95;;
18104;SDS011;9179;50.968;3.134;2023-05-02T03:15:06;26.40;;;22.50;;
18104;SDS011;9179;50.968;3.134;2023-05-02T03:17:45;28.00;;;23.35;;
18104;SDS011;9179;50.968;3.134;2023-05-02T03:20:13;29.33;;;23.65;;
18104;SDS011;9179;50.968;3.134;2023-05-02T03:22:40;30.08;;;23.58;;
18104;SDS011;9179;50.968;3.134;2023-05-02T03:25:07;30.77;;;23.52;;
18104;SDS011;9179;50.968;3.134;2023-05-02T03:27:35;31.35;;;22.80;;
18104;SDS011;9179;50.968;3.134;2023-05-02T03:30:02;29.05;;;20.63;;
18104;SDS011;9179;50.968;3.134;2023-05-02T03:32:29;28.35;;;22.55;;
18104;SDS011;9179;50.968;3.134;2023-05-02T03:34:56;27.60;;;22.58;;
18104;SDS011;9179;50.968;3.134;2023-05-02T03:37:25;27.92;;;22.30;;
18104;SDS011;9179;50.968;3.134;2023-05-02T03:39:52;31.85;;;22.63;;
18104;SDS011;9179;50.968;3.134;2023-05-02T03:42:20;30.50;;;22.40;;
18104;SDS011;9179;50.968;3.134;2023-05-02T03:44:47;29.90;;;23.65;;
18104;SDS011;9179;50.968;3.134;2023-05-02T03:47:17;35.85;;;24.42;;
18104;SDS011;9179;50.968;3.134;2023-05-02T03:49:44;32.92;;;24.38;;
18104;SDS011;9179;50.968;3.134;2023-05-02T03:52:11;31.38;;;22.38;;
18104;SDS011;9179;50.968;3.134;2023-05-02T03:54:40;29.83;;;22.70;;
18104;SDS011;9179;50.968;3.134;2023-05-02T03:57:07;29.50;;;23.92;;
18104;SDS011;9179;50.968;3.134;2023-05-02T03:59:34;26.75;;;21.40;;
18104;SDS011;9179;50.968;3.134;2023-05-02T04:02:05;24.58;;;21.13;;
18104;SDS011;9179;50.968;3.134;2023-05-02T04:04:32;21.85;;;17.40;;
18104;SDS011;9179;50.968;3.134;2023-05-02T04:07:00;24.38;;;17.42;;
18104;SDS011;9179;50.968;3.134;2023-05-02T04:09:27;20.77;;;16.05;;
18104;SDS011;9179;50.968;3.134;2023-05-02T04:11:55;18.05;;;12.88;;
18104;SDS011;9179;50.968;3.134;2023-05-02T04:14:22;18.73;;;13.68;;
18104;SDS011;9179;50.968;3.134;2023-05-02T04:16:49;15.23;;;12.20;;
18104;SDS011;9179;50.968;3.134;2023-05-02T04:19:17;17.23;;;13.55;;
18104;SDS011;9179;50.968;3.134;2023-05-02T04:21:44;15.63;;;12.23;;
18104;SDS011;9179;50.968;3.134;2023-05-02T04:24:12;14.75;;;11.90;;
18104;SDS011;9179;50.968;3.134;2023-05-02T04:26:39;19.08;;;12.57;;
18104;SDS011;9179;50.968;3.134;2023-05-02T04:29:07;17.35;;;11.77;;
18104;SDS011;9179;50.968;3.134;2023-05-02T04:31:34;14.60;;;12.80;;
18104;SDS011;9179;50.968;3.134;2023-05-02T04:34:01;16.08;;;11.65;;
18104;SDS011;9179;50.968;3.134;2023-05-02T04:36:29;16.38;;;11.60;;
18104;SDS011;9179;50.968;3.134;2023-05-02T04:38:58;15.95;;;11.68;;
18104;SDS011;9179;50.968;3.134;2023-05-02T04:41:25;12.65;;;10.98;;
18104;SDS011;9179;50.968;3.134;2023-05-02T04:43:52;13.63;;;10.25;;
18104;SDS011;9179;50.968;3.134;2023-05-02T04:46:21;13.23;;;11.00;;
18104;SDS011;9179;50.968;3.134;2023-05-02T04:48:48;13.73;;;11.20;;
18104;SDS011;9179;50.968;3.134;2023-05-02T04:51:15;15.80;;;10.70;;
18104;SDS011;9179;50.968;3.134;2023-05-02T04:53:42;13.70;;;10.80;;
18104;SDS011;9179;50.968;3.134;2023-05-02T04:56:08;16.40;;;11.48;;
18104;SDS011;9179;50.968;3.134;2023-05-02T04:58:36;14.43;;;11.77;;
18104;SDS011;9179;50.968;3.134;2023-05-02T05:01:03;17.15;;;12.07;;
18104;SDS011;9179;50.968;3.134;2023-05-02T05:03:31;16.00;;;11.70;;
18104;SDS011;9179;50.968;3.134;2023-05-02T05:05:58;17.45;;;12.18;;
18104;SDS011;9179;50.968;3.134;2023-05-02T05:08:26;15.02;;;11.73;;
18104;SDS011;9179;50.968;3.134;2023-05-02T05:10:53;14.60;;;11.48;;
18104;SDS011;9179;50.968;3.134;2023-05-02T05:13:20;11.73;;;10.55;;
18104;SDS011;9179;50.968;3.134;2023-05-02T05:15:47;10.77;;;9.63;;
18104;SDS011;9179;50.968;3.134;2023-05-02T05:18:14;9.85;;;8.95;;
18104;SDS011;9179;50.968;3.134;2023-05-02T05:20:42;12.40;;;8.50;;
18104;SDS011;9179;50.968;3.134;2023-05-02T05:23:09;11.05;;;8.23;;
18104;SDS011;9179;50.968;3.134;2023-05-02T05:25:36;10.73;;;8.15;;
18104;SDS011;9179;50.968;3.134;2023-05-02T05:28:03;8.63;;;7.65;;
18104;SDS011;9179;50.968;3.134;2023-05-02T05:30:30;8.63;;;7.15;;
18104;SDS011;9179;50.968;3.134;2023-05-02T05:32:56;10.25;;;8.57;;
18104;SDS011;9179;50.968;3.134;2023-05-02T05:35:23;8.98;;;7.88;;
18104;SDS011;9179;50.968;3.134;2023-05-02T05:37:52;9.63;;;8.57;;
18104;SDS011;9179;50.968;3.134;2023-05-02T05:40:19;15.88;;;8.82;;
18104;SDS011;9179;50.968;3.134;2023-05-02T05:42:46;11.07;;;7.88;;
18104;SDS011;9179;50.968;3.134;2023-05-02T05:45:13;12.40;;;8.35;;
18104;SDS011;9179;50.968;3.134;2023-05-02T05:47:43;8.98;;;7.05;;
18104;SDS011;9179;50.968;3.134;2023-05-02T05:50:10;12.60;;;7.78;;
18104;SDS011;9179;50.968;3.134;2023-05-02T05:52:37;9.23;;;8.15;;
18104;SDS011;9179;50.968;3.134;2023-05-02T05:55:06;9.05;;;7.57;;
18104;SDS011;9179;50.968;3.134;2023-05-02T05:57:33;9.35;;;6.70;;
18104;SDS011;9179;50.968;3.134;2023-05-02T06:00:00;8.23;;;7.40;;
18104;SDS011;9179;50.968;3.134;2023-05-02T06:02:28;8.52;;;6.05;;
18104;SDS011;9179;50.968;3.134;2023-05-02T06:04:55;10.15;;;6.25;;
18104;SDS011;9179;50.968;3.134;2023-05-02T06:07:22;6.22;;;5.72;;
18104;SDS011;9179;50.968;3.134;2023-05-02T06:09:48;7.82;;;5.97;;
18104;SDS011;9179;50.968;3.134;2023-05-02T06:12:17;9.35;;;6.55;;
18104;SDS011;9179;50.968;3.134;2023-05-02T06:14:44;8.40;;;5.55;;
18104;SDS011;9179;50.968;3.134;2023-05-02T06:17:10;9.60;;;6.68;;
18104;SDS011;9179;50.968;3.134;2023-05-02T06:19:37;8.18;;;7.30;;
18104;SDS011;9179;50.968;3.134;2023-05-02T06:22:05;9.10;;;7.15;;
18104;SDS011;9179;50.968;3.134;2023-05-02T06:24:31;7.32;;;6.63;;
18104;SDS011;9179;50.968;3.134;2023-05-02T06:26:58;7.70;;;6.88;;
18104;SDS011;9179;50.968;3.134;2023-05-02T06:29:27;8.68;;;6.55;;
18104;SDS011;9179;50.968;3.134;2023-05-02T06:31:54;7.63;;;6.28;;
18104;SDS011;9179;50.968;3.134;2023-05-02T06:34:21;9.15;;;7.25;;
18104;SDS011;9179;50.968;3.134;2023-05-02T06:36:50;9.18;;;6.25;;
18104;SDS011;9179;50.968;3.134;2023-05-02T06:39:20;8.63;;;5.95;;
18104;SDS011;9179;50.968;3.134;2023-05-02T06:41:47;8.80;;;6.32;;
18104;SDS011;9179;50.968;3.134;2023-05-02T06:44:14;9.25;;;5.80;;
18104;SDS011;9179;50.968;3.134;2023-05-02T06:46:42;7.38;;;6.68;;
18104;SDS011;9179;50.968;3.134;2023-05-02T06:49:09;12.85;;;7.68;;
18104;SDS011;9179;50.968;3.134;2023-05-02T06:51:36;7.97;;;7.32;;
18104;SDS011;9179;50.968;3.134;2023-05-02T06:54:03;8.45;;;6.25;;
18104;SDS011;9179;50.968;3.134;2023-05-02T06:56:31;10.90;;;5.45;;
18104;SDS011;9179;50.968;3.134;2023-05-02T06:58:58;6.68;;;5.72;;
18104;SDS011;9179;50.968;3.134;2023-05-02T07:01:25;7.70;;;5.97;;
18104;SDS011;9179;50.968;3.134;2023-05-02T07:03:53;7.72;;;6.20;;
18104;SDS011;9179;50.968;3.134;2023-05-02T07:06:20;8.60;;;5.97;;
18104;SDS011;9179;50.968;3.134;2023-05-02T07:08:47;6.75;;;5.60;;
18104;SDS011;9179;50.968;3.134;2023-05-02T07:11:14;7.32;;;5.68;;
18104;SDS011;9179;50.968;3.134;2023-05-02T07:13:41;7.53;;;6.40;;
18104;SDS011;9179;50.968;3.134;2023-05-02T07:16:08;7.10;;;5.35;;
18104;SDS011;9179;50.968;3.134;2023-05-02T07:18:35;6.53;;;4.88;;
18104;SDS011;9179;50.968;3.134;2023-05-02T07:21:04;6.93;;;5.18;;
18104;SDS011;9179;50.968;3.134;2023-05-02T07:23:31;6.72;;;5.38;;
18104;SDS011;9179;50.968;3.134;2023-05-02T07:25:58;8.27;;;4.93;;
18104;SDS011;9179;50.968;3.134;2023-05-02T07:28:25;7.63;;;4.25;;
18104;SDS011;9179;50.968;3.134;2023-05-02T07:30:52;5.35;;;3.50;;
18104;SDS011;9179;50.968;3.134;2023-05-02T07:33:19;8.55;;;4.60;;
18104;SDS011;9179;50.968;3.134;2023-05-02T07:35:46;6.22;;;3.97;;
18104;SDS011;9179;50.968;3.134;2023-05-02T07:38:14;5.78;;;4.25;;
18104;SDS011;9179;50.968;3.134;2023-05-02T07:40:41;3.85;;;3.47;;
18104;SDS011;9179;50.968;3.134;2023-05-02T07:43:10;5.90;;;3.70;;
18104;SDS011;9179;50.968;3.134;2023-05-02T07:45:37;6.95;;;3.35;;
18104;SDS011;9179;50.968;3.134;2023-05-02T07:48:04;3.30;;;2.70;;
18104;SDS011;9179;50.968;3.134;2023-05-02T07:50:31;2.42;;;2.22;;
18104;SDS011;9179;50.968;3.134;2023-05-02T07:52:58;4.80;;;2.53;;
18104;SDS011;9179;50.968;3.134;2023-05-02T07:55:27;4.60;;;2.63;;
18104;SDS011;9179;50.968;3.134;2023-05-02T07:57:55;3.97;;;2.50;;
18104;SDS011;9179;50.968;3.134;2023-05-02T08:00:22;5.10;;;2.97;;
18104;SDS011;9179;50.968;3.134;2023-05-02T08:02:49;4.97;;;3.42;;
18104;SDS011;9179;50.968;3.134;2023-05-02T08:05:16;4.38;;;3.08;;
18104;SDS011;9179;50.968;3.134;2023-05-02T08:07:42;3.50;;;2.65;;
18104;SDS011;9179;50.968;3.134;2023-05-02T08:10:10;3.20;;;2.72;;
18104;SDS011;9179;50.968;3.134;2023-05-02T08:12:57;3.80;;;2.30;;
18104;SDS011;9179;50.968;3.134;2023-05-02T08:15:30;4.05;;;2.72;;
18104;SDS011;9179;50.968;3.134;2023-05-02T08:17:57;3.67;;;3.05;;
18104;SDS011;9179;50.968;3.134;2023-05-02T08:20:25;5.05;;;2.38;;
18104;SDS011;9179;50.968;3.134;2023-05-02T08:22:52;4.47;;;3.13;;
18104;SDS011;9179;50.968;3.134;2023-05-02T08:25:19;3.78;;;2.30;;
18104;SDS011;9179;50.968;3.134;2023-05-02T08:27:46;8.27;;;2.85;;
18104;SDS011;9179;50.968;3.134;2023-05-02T08:30:14;5.10;;;2.60;;
18104;SDS011;9179;50.968;3.134;2023-05-02T08:32:41;7.07;;;2.90;;
18104;SDS011;9179;50.968;3.134;2023-05-02T08:35:08;4.00;;;2.15;;
18104;SDS011;9179;50.968;3.134;2023-05-02T08:37:35;2.97;;;2.65;;
18104;SDS011;9179;50.968;3.134;2023-05-02T08:40:03;5.20;;;3.30;;
18104;SDS011;9179;50.968;3.134;2023-05-02T08:42:31;5.05;;;2.60;;
18104;SDS011;9179;50.968;3.134;2023-05-02T08:44:59;6.25;;;2.38;;
18104;SDS011;9179;50.968;3.134;2023-05-02T08:47:28;4.80;;;2.63;;
18104;SDS011;9179;50.968;3.134;2023-05-02T08:49:57;4.65;;;2.35;;
18104;SDS011;9179;50.968;3.134;2023-05-02T08:52:25;4.60;;;2.78;;
18104;SDS011;9179;50.968;3.134;2023-05-02T08:54:52;5.65;;;2.85;;
18104;SDS011;9179;50.968;3.134;2023-05-02T08:57:20;5.28;;;3.08;;
18104;SDS011;9179;50.968;3.134;2023-05-02T08:59:47;2.97;;;2.42;;
18104;SDS011;9179;50.968;3.134;2023-05-02T09:02:17;8.20;;;2.97;;
18104;SDS011;9179;50.968;3.134;2023-05-02T09:04:54;5.30;;;2.90;;
18104;SDS011;9179;50.968;3.134;2023-05-02T09:07:29;3.33;;;2.70;;
18104;SDS011;9179;50.968;3.134;2023-05-02T09:09:56;5.47;;;2.70;;
18104;SDS011;9179;50.968;3.134;2023-05-02T09:12:24;4.57;;;2.50;;
18104;SDS011;9179;50.968;3.134;2023-05-02T09:17:40;3.75;;;2.60;;
18104;SDS011;9179;50.968;3.134;2023-05-02T09:20:10;5.47;;;2.58;;
18104;SDS011;9179;50.968;3.134;2023-05-02T09:22:38;3.90;;;2.35;;
18104;SDS011;9179;50.968;3.134;2023-05-02T09:25:12;5.75;;;2.83;;
18104;SDS011;9179;50.968;3.134;2023-05-02T09:27:49;3.58;;;2.33;;
18104;SDS011;9179;50.968;3.134;2023-05-02T09:30:19;4.63;;;2.60;;
18104;SDS011;9179;50.968;3.134;2023-05-02T09:32:47;6.25;;;3.28;;
18104;SDS011;9179;50.968;3.134;2023-05-02T09:35:17;4.22;;;2.22;;
18104;SDS011;9179;50.968;3.134;2023-05-02T09:37:49;5.22;;;2.65;;
18104;SDS011;9179;50.968;3.134;2023-05-02T09:40:17;3.45;;;2.30;;
18104;SDS011;9179;50.968;3.134;2023-05-02T09:42:44;4.57;;;2.60;;
18104;SDS011;9179;50.968;3.134;2023-05-02T09:45:21;5.18;;;2.67;;
18104;SDS011;9179;50.968;3.134;2023-05-02T09:47:49;5.13;;;2.63;;
18104;SDS011;9179;50.968;3.134;2023-05-02T09:50:34;6.13;;;3.15;;
18104;SDS011;9179;50.968;3.134;2023-05-02T09:53:03;8.50;;;3.38;;
18104;SDS011;9179;50.968;3.134;2023-05-02T09:55:31;3.97;;;2.97;;
18104;SDS011;9179;50.968;3.134;2023-05-02T09:57:58;5.90;;;3.17;;
18104;SDS011;9179;50.968;3.134;2023-05-02T10:00:41;3.20;;;2.83;;
18104;SDS011;9179;50.968;3.134;2023-05-02T10:03:09;3.55;;;2.92;;
18104;SDS011;9179;50.968;3.134;2023-05-02T10:05:42;4.22;;;3.05;;
18104;SDS011;9179;50.968;3.134;2023-05-02T10:08:11;3.47;;;2.95;;
18104;SDS011;9179;50.968;3.134;2023-05-02T10:10:39;4.25;;;3.53;;
18104;SDS011;9179;50.968;3.134;2023-05-02T10:13:08;6.22;;;3.22;;
18104;SDS011;9179;50.968;3.134;2023-05-02T10:15:41;4.18;;;2.75;;
18104;SDS011;9179;50.968;3.134;2023-05-02T10:18:11;4.65;;;3.65;;
18104;SDS011;9179;50.968;3.134;2023-05-02T10:20:42;5.30;;;3.00;;
18104;SDS011;9179;50.968;3.134;2023-05-02T10:23:12;4.95;;;3.53;;
18104;SDS011;9179;50.968;3.134;2023-05-02T10:25:40;3.92;;;3.03;;
18104;SDS011;9179;50.968;3.134;2023-05-02T10:28:08;5.30;;;3.15;;
18104;SDS011;9179;50.968;3.134;2023-05-02T10:30:36;6.18;;;2.97;;
18104;SDS011;9179;50.968;3.134;2023-05-02T10:33:05;5.40;;;3.30;;
18104;SDS011;9179;50.968;3.134;2023-05-02T10:35:33;3.97;;;2.83;;
18104;SDS011;9179;50.968;3.134;2023-05-02T10:38:03;9.20;;;4.00;;
18104;SDS011;9179;50.968;3.134;2023-05-02T10:40:32;3.58;;;3.28;;
18104;SDS011;9179;50.968;3.134;2023-05-02T10:42:59;4.65;;;3.60;;
18104;SDS011;9179;50.968;3.134;2023-05-02T10:45:30;7.30;;;3.70;;
18104;SDS011;9179;50.968;3.134;2023-05-02T10:48:16;6.30;;;3.83;;
18104;SDS011;9179;50.968;3.134;2023-05-02T10:50:45;5.25;;;3.17;;
18104;SDS011;9179;50.968;3.134;2023-05-02T10:56:10;5.43;;;3.30;;
18104;SDS011;9179;50.968;3.134;2023-05-02T10:58:38;6.93;;;3.25;;
18104;SDS011;9179;50.968;3.134;2023-05-02T11:04:01;4.57;;;3.00;;
18104;SDS011;9179;50.968;3.134;2023-05-02T11:06:29;4.50;;;3.28;;
18104;SDS011;9179;50.968;3.134;2023-05-02T11:11:59;3.97;;;2.50;;
18104;SDS011;9179;50.968;3.134;2023-05-02T11:14:42;5.22;;;3.22;;
18104;SDS011;9179;50.968;3.134;2023-05-02T11:17:11;5.85;;;2.78;;
18104;SDS011;9179;50.968;3.134;2023-05-02T11:22:55;4.85;;;3.15;;
18104;SDS011;9179;50.968;3.134;2023-05-02T11:25:31;3.15;;;2.72;;
18104;SDS011;9179;50.968;3.134;2023-05-02T11:28:00;2.97;;;2.67;;
18104;SDS011;9179;50.968;3.134;2023-05-02T11:30:38;3.97;;;3.10;;
18104;SDS011;9179;50.968;3.134;2023-05-02T11:33:15;5.22;;;3.08;;
18104;SDS011;9179;50.968;3.134;2023-05-02T11:35:44;3.70;;;2.85;;
18104;SDS011;9179;50.968;3.134;2023-05-02T11:38:13;3.20;;;2.90;;
18104;SDS011;9179;50.968;3.134;2023-05-02T11:40:49;4.55;;;2.80;;
18104;SDS011;9179;50.968;3.134;2023-05-02T11:43:18;4.55;;;3.10;;
18104;SDS011;9179;50.968;3.134;2023-05-02T11:45:46;4.38;;;3.17;;
18104;SDS011;9179;50.968;3.134;2023-05-02T11:48:15;15.85;;;9.90;;
18104;SDS011;9179;50.968;3.134;2023-05-02T11:50:44;4.32;;;2.80;;
18104;SDS011;9179;50.968;3.134;2023-05-02T11:53:12;4.32;;;2.85;;
18104;SDS011;9179;50.968;3.134;2023-05-02T11:55:44;3.45;;;3.15;;
18104;SDS011;9179;50.968;3.134;2023-05-02T11:58:14;6.57;;;2.85;;
18104;SDS011;9179;50.968;3.134;2023-05-02T12:00:41;6.55;;;3.45;;
18104;SDS011;9179;50.968;3.134;2023-05-02T12:03:21;4.10;;;2.95;;
18104;SDS011;9179;50.968;3.134;2023-05-02T12:05:49;4.75;;;3.47;;
18104;SDS011;9179;50.968;3.134;2023-05-02T12:08:18;6.05;;;3.47;;
18104;SDS011;9179;50.968;3.134;2023-05-02T12:10:46;6.88;;;3.20;;
18104;SDS011;9179;50.968;3.134;2023-05-02T12:13:17;5.65;;;3.33;;
18104;SDS011;9179;50.968;3.134;2023-05-02T12:15:46;3.50;;;2.75;;
18104;SDS011;9179;50.968;3.134;2023-05-02T12:18:14;5.57;;;3.08;;
18104;SDS011;9179;50.968;3.134;2023-05-02T12:20:42;4.70;;;3.15;;
18104;SDS011;9179;50.968;3.134;2023-05-02T12:23:09;4.03;;;3.20;;
18104;SDS011;9179;50.968;3.134;2023-05-02T12:25:37;4.82;;;3.15;;
18104;SDS011;9179;50.968;3.134;2023-05-02T12:28:05;4.07;;;3.30;;
18104;SDS011;9179;50.968;3.134;2023-05-02T12:30:34;3.35;;;2.88;;
18104;SDS011;9179;50.968;3.134;2023-05-02T12:33:04;5.85;;;3.47;;
18104;SDS011;9179;50.968;3.134;2023-05-02T12:35:32;4.80;;;3.40;;
18104;SDS011;9179;50.968;3.134;2023-05-02T12:38:09;3.65;;;2.80;;
18104;SDS011;9179;50.968;3.134;2023-05-02T12:40:38;4.15;;;2.78;;
18104;SDS011;9179;50.968;3.134;2023-05-02T12:43:12;5.80;;;3.22;;
18104;SDS011;9179;50.968;3.134;2023-05-02T12:45:40;4.05;;;2.88;;
18104;SDS011;9179;50.968;3.134;2023-05-02T12:48:24;6.05;;;3.47;;
18104;SDS011;9179;50.968;3.134;2023-05-02T12:50:52;3.13;;;2.58;;
18104;SDS011;9179;50.968;3.134;2023-05-02T12:53:39;3.60;;;2.33;;
18104;SDS011;9179;50.968;3.134;2023-05-02T12:56:07;5.07;;;2.75;;
18104;SDS011;9179;50.968;3.134;2023-05-02T12:58:41;5.30;;;2.70;;
18104;SDS011;9179;50.968;3.134;2023-05-02T13:01:10;2.33;;;2.13;;
18104;SDS011;9179;50.968;3.134;2023-05-02T13:03:38;3.38;;;2.65;;
18104;SDS011;9179;50.968;3.134;2023-05-02T13:06:05;3.28;;;2.80;;
18104;SDS011;9179;50.968;3.134;2023-05-02T13:08:32;5.28;;;2.67;;
18104;SDS011;9179;50.968;3.134;2023-05-02T13:11:00;4.50;;;2.95;;
18104;SDS011;9179;50.968;3.134;2023-05-02T13:13:28;4.68;;;3.05;;
18104;SDS011;9179;50.968;3.134;2023-05-02T13:15:55;5.28;;;2.85;;
18104;SDS011;9179;50.968;3.134;2023-05-02T13:18:23;4.32;;;3.17;;
18104;SDS011;9179;50.968;3.134;2023-05-02T13:20:52;3.10;;;2.80;;
18104;SDS011;9179;50.968;3.134;2023-05-02T13:23:19;2.75;;;2.45;;
18104;SDS011;9179;50.968;3.134;2023-05-02T13:25:46;5.35;;;3.05;;
18104;SDS011;9179;50.968;3.134;2023-05-02T13:28:13;3.13;;;2.80;;
18104;SDS011;9179;50.968;3.134;2023-05-02T13:30:40;3.83;;;3.05;;
18104;SDS011;9179;50.968;3.134;2023-05-02T13:33:07;6.22;;;3.08;;
18104;SDS011;9179;50.968;3.134;2023-05-02T13:35:35;4.22;;;3.15;;
18104;SDS011;9179;50.968;3.134;2023-05-02T13:38:02;5.40;;;3.20;;
18104;SDS011;9179;50.968;3.134;2023-05-02T13:40:29;3.30;;;3.00;;
18104;SDS011;9179;50.968;3.134;2023-05-02T13:42:56;3.33;;;2.92;;
18104;SDS011;9179;50.968;3.134;2023-05-02T13:45:23;3.08;;;2.78;;
18104;SDS011;9179;50.968;3.134;2023-05-02T13:47:50;5.35;;;3.05;;
18104;SDS011;9179;50.968;3.134;2023-05-02T13:50:17;3.17;;;2.58;;
18104;SDS011;9179;50.968;3.134;2023-05-02T13:52:46;3.08;;;2.70;;
18104;SDS011;9179;50.968;3.134;2023-05-02T13:55:13;5.68;;;2.58;;
18104;SDS011;9179;50.968;3.134;2023-05-02T13:57:40;5.72;;;3.17;;
18104;SDS011;9179;50.968;3.134;2023-05-02T14:00:08;5.32;;;2.63;;
18104;SDS011;9179;50.968;3.134;2023-05-02T14:02:37;5.47;;;3.33;;
18104;SDS011;9179;50.968;3.134;2023-05-02T14:05:04;5.60;;;2.65;;
18104;SDS011;9179;50.968;3.134;2023-05-02T14:07:31;5.85;;;3.08;;
18104;SDS011;9179;50.968;3.134;2023-05-02T14:10:00;3.08;;;2.53;;
18104;SDS011;9179;50.968;3.134;2023-05-02T14:12:27;5.18;;;3.13;;
18104;SDS011;9179;50.968;3.134;2023-05-02T14:14:53;6.53;;;3.15;;
18104;SDS011;9179;50.968;3.134;2023-05-02T14:17:20;3.00;;;2.53;;
18104;SDS011;9179;50.968;3.134;2023-05-02T14:19:49;2.45;;;1.98;;
18104;SDS011;9179;50.968;3.134;2023-05-02T14:22:16;2.38;;;2.17;;
18104;SDS011;9179;50.968;3.134;2023-05-02T14:24:43;2.58;;;2.08;;
18104;SDS011;9179;50.968;3.134;2023-05-02T14:27:11;5.45;;;2.28;;
18104;SDS011;9179;50.968;3.134;2023-05-02T14:29:42;3.60;;;2.50;;
18104;SDS011;9179;50.968;3.134;2023-05-02T14:32:09;2.97;;;2.45;;
18104;SDS011;9179;50.968;3.134;2023-05-02T14:34:36;4.00;;;2.10;;
18104;SDS011;9179;50.968;3.134;2023-05-02T14:37:03;2.92;;;2.65;;
18104;SDS011;9179;50.968;3.134;2023-05-02T14:39:30;2.33;;;2.13;;
18104;SDS011;9179;50.968;3.134;2023-05-02T14:41:57;5.00;;;2.50;;
18104;SDS011;9179;50.968;3.134;2023-05-02T14:44:25;3.22;;;2.38;;
18104;SDS011;9179;50.968;3.134;2023-05-02T14:46:53;4.78;;;2.47;;
18104;SDS011;9179;50.968;3.134;2023-05-02T14:49:20;4.43;;;2.50;;
18104;SDS011;9179;50.968;3.134;2023-05-02T14:51:48;4.90;;;2.70;;
18104;SDS011;9179;50.968;3.134;2023-05-02T14:54:15;3.97;;;2.58;;
18104;SDS011;9179;50.968;3.134;2023-05-02T14:56:43;3.53;;;2.50;;
18104;SDS011;9179;50.968;3.134;2023-05-02T14:59:10;4.10;;;2.42;;
18104;SDS011;9179;50.968;3.134;2023-05-02T15:01:38;4.45;;;2.33;;
18104;SDS011;9179;50.968;3.134;2023-05-02T15:04:05;6.28;;;2.33;;
18104;SDS011;9179;50.968;3.134;2023-05-02T15:06:32;4.88;;;2.80;;
18104;SDS011;9179;50.968;3.134;2023-05-02T15:08:59;3.85;;;2.70;;
18104;SDS011;9179;50.968;3.134;2023-05-02T15:11:27;3.83;;;2.60;;
18104;SDS011;9179;50.968;3.134;2023-05-02T15:13:54;2.95;;;2.25;;
18104;SDS011;9179;50.968;3.134;2023-05-02T15:16:21;5.43;;;2.85;;